x

Virginia Beach 64 Nm East Of Virginia Beach, Va (44014) Wave Buoy

4:50am - Tue 31st Mar 2015 All times are EDT. -4 hours from GMT.

  • Sig Wave height 3.6ft
  • Swell Direction
  • Peak Period 8s
  • Average Period 6s
  • Wind
    4mph, 7mph gusts
  • Sea Temp 47°f
  • Air Temp 48°f
  • Sea Pressure 1014.8mb
  • Virginia Beach 64 Nm East Of Virginia Beach, Va
  • Virginia Beach 64 Nm East Of Virginia Beach, Va

More Historic Weather Station data

Upgrade to MSW Pro to gain access to the past 30 days of data for over 8000 Wavebouys and Weather Stations around the globe.

Join Pro

Comparision Forecast

View Surf forecast
   
Tue 03/31 4:50am 3.5ft 8s 6s 4 7 mph 1014.8mb 47f 48f
3:50am 4ft 6s 5s 11 13 mph 1014.6mb 47f 47f
2:50am 3.5ft 7s 5s 16 18 mph 1014.6mb 47f 48f
1:50am 4.5ft 7s 5s 16 18 mph 1014.3mb 47f 49f
12:50am 4ft 7s 5s 13 16 mph 1014.5mb 46f 50f
Mon 03/30 11:50pm 4ft 7s 5s 11 13 mph 1014.6mb 47f 50f
10:50pm 4.5ft 7s 5s 16 18 mph 1014.6mb 47f 50f
9:50pm 4.5ft 6s 5s 18 20 mph 1014.3mb 47f 50f
8:50pm 4.5ft 5s 5s 18 22 mph 1013.5mb 48f 49f
7:50pm 4.5ft 6s 5s 20 22 mph 1012.6mb 48f 49f
6:50pm 5ft 5s 5s 20 25 mph 1012.4mb 49f 48f
5:50pm 5.5ft 6s 5s 22 27 mph 1012.2mb 49f 48f
4:50pm 6ft 5s 5s 27 31 mph 1012.3mb 49f 48f
3:50pm 6ft 5s 5s 29 34 mph 1012.7mb 49f 47f
2:50pm 5ft 5s 5s 27 34 mph 1013.4mb 49f 47f
1:50pm 5.5ft 5s 5s 29 36 mph 1014.4mb 49f 48f
12:50pm 6ft 6s 5s 27 34 mph 1015.3mb 48f 49f
11:50am 6ft 6s 5s 29 38 mph 1015.7mb 48f 50f
10:50am 6ft 5s 5s 29 38 mph 1016.6mb 48f 49f
9:50am 6ft 6s 5s 29 38 mph 1017.5mb 49f 49f
8:50am 5.5ft 5s 5s 29 36 mph 1017.9mb 48f 49f
7:50am 6ft 5s 5s 27 34 mph 1018.6mb 49f 48f
6:50am 5ft 5s 5s 25 31 mph 1019.5mb 51f 48f
5:50am 5ft 10s 5s 22 27 mph 1019.8mb 52f 47f
4:50am 5ft 10s 5s 22 27 mph 1020.8mb 52f 46f
3:50am 4.5ft 10s 6s 22 27 mph 1021.4mb 52f 45f
2:50am 4.5ft 10s 6s 18 22 mph 1022.2mb 53f 45f
1:50am 4.5ft 10s 7s 16 20 mph 1023.5mb 54f 44f
12:50am 4.5ft 9s 7s 16 18 mph 1023.7mb 54f 44f
Sun 03/29 11:50pm 5ft 10s 7s 11 16 mph 1024.3mb 54f 42f
10:50pm 5ft 10s 7s 7 9 mph 1025.2mb 54f 42f
9:50pm 5ft 9s 6s 4
mph
1025.8mb 54f 40f
8:50pm 5ft 10s 6s 9 13 mph 1026.1mb 54f 40f
7:50pm 5ft 9s 5s 11 18 mph 1025.9mb 54f 39f
6:50pm 4.5ft 5s 5s 18 22 mph 1025.7mb 54f 39f
5:50pm 5ft 5s 5s 18 22 mph 1025.4mb 55f 38f
4:50pm 5ft 5s 5s 22 27 mph 1025.9mb 55f 38f
3:50pm 5ft 6s 5s 22 29 mph 1026.1mb 54f 37f
2:50pm 5ft 6s 5s 22 29 mph 1026.4mb 54f 36f
1:50pm 5ft 6s 5s 22 27 mph 1027mb 53f 35f
12:50pm 6ft 6s 5s 22 29 mph 1027.2mb 50f 34f
11:50am 6ft 6s 5s 22 29 mph 1027.4mb 50f 34f
10:50am 6ft 6s 5s 25 29 mph 1027.4mb 50f 34f
9:50am 6.5ft 6s 5s 27 34 mph 1027mb 51f 34f
8:50am 6ft 6s 5s 22 31 mph 1026mb 51f 34f
7:50am 6.5ft 6s 5s 25 31 mph 1025.3mb 52f 35f
6:50am 5.5ft 6s 5s 25 31 mph 1024.2mb 54f 35f
5:50am 6ft 6s 5s 27 36 mph 1023.4mb 54f 35f
4:50am 6ft 6s 5s 25 29 mph 1022.7mb 55f 35f
3:50am 6ft 6s 5s 22 29 mph 1022.2mb 55f 36f
2:50am 5.5ft 6s 5s 20 29 mph 1022.4mb 55f 36f
1:50am 6ft 6s 5s 22 29 mph 1022.5mb 56f 36f
12:50am 6ft 6s 5s 27 34 mph 1022.3mb 56f 37f
Sat 03/28 11:50pm 6ft 6s 5s 25 31 mph 1022.1mb 56f 37f
10:50pm 6ft 6s 5s 25 34 mph 1021.6mb 56f 38f
9:50pm 6ft 6s 5s 25 31 mph 1020.8mb 57f 38f
8:50pm 6ft 6s 5s 22 29 mph 1019.7mb 57f 39f
7:50pm 6ft 7s 5s 18 25 mph 1018.8mb 57f 39f
6:50pm 6ft 7s 5s 16 22 mph 1017.9mb 57f 39f
5:50pm 7ft 8s 6s 20 27 mph 1016.6mb 57f 39f
4:50pm 7.5ft 8s 6s 22 27 mph 1015.7mb 57f 39f
3:50pm 8ft 8s 6s 22 27 mph 1014.9mb 57f 39f
2:50pm 9ft 8s 6s 25 31 mph 1014.4mb 57f 38f
1:50pm 9ft 7s 6s 27 29 mph 1014.2mb 57f 39f
12:50pm 9ft 7s 6s 25 31 mph 1013.7mb 57f 40f
11:50am 9ft 7s 6s 29 34 mph 1013mb 56f 41f
10:50am 9.5ft 8s 6s 29 36 mph 1012.3mb 56f 41f
9:50am 9ft 8s 6s 29 36 mph 1011.4mb 56f 42f
8:50am 8.5ft 8s 6s 29 36 mph 1010.2mb 56f 43f
7:50am 8ft 8s 6s 29 36 mph 1009.3mb 56f 43f
6:50am 9ft 7s 6s 29 36 mph 1007.5mb 56f 44f
5:50am 9ft 8s 6s 29 36 mph 1006.4mb 56f 44f
4:50am 10.5ft 8s 6s 25 31 mph 1005.1mb 56f 44f
3:50am 11ft 8s 6s 31 38 mph 1004.8mb 56f 44f
2:50am 10.5ft 8s 6s 34 40 mph 1004.4mb 57f 45f
1:50am 10ft 7s 6s 31 38 mph 1004.5mb 57f 44f
12:50am 9.5ft 7s 6s 31 38 mph 1004.8mb 57f 44f
Fri 03/27 11:50pm 9.5ft 8s 6s 29 36 mph 1005.1mb 57f 44f
10:50pm 9ft 7s 6s 29 34 mph 1005.1mb 56f 44f
9:50pm 9ft 7s 6s 29 34 mph 1005.5mb 57f 44f
8:50pm 9ft 9s 6s 25 29 mph 1006mb 53f 44f
7:50pm 9ft 8s 6s 27 34 mph 1005mb 53f 44f
6:50pm 9ft 8s 6s 25 29 mph 1005.7mb 52f 44f
5:50pm 9ft 8s 6s 22 27 mph 1004.8mb 52f 45f
4:50pm 9ft 7s 6s 27 31 mph 1004.4mb 52f 46f
3:50pm 11ft 8s 6s 27 34 mph 1004.7mb 52f 44f
2:50pm 10ft 8s 6s 31 36 mph 1005.2mb 52f 44f
1:50pm 9.5ft 7s 6s 27 34 mph 1004.8mb 52f 46f
12:50pm 9ft 7s 6s 27 31 mph 1004.3mb 52f 47f
11:50am 8.5ft 7s 6s 27 31 mph 1004.7mb 52f 49f
10:50am 9.5ft 9s 6s 25 29 mph 1004.7mb 51f 48f